sensor_id;sensor_type;location;lat;lon;timestamp;pressure;altitude;pressure_sealevel;temperature;humidity
54951;BME280;40854;45.282;4.302;2023-04-22T00:00:42;91478.66;;;20.18;37.97
54951;BME280;40854;45.282;4.302;2023-04-22T00:03:08;91457.84;;;20.20;37.95
54951;BME280;40854;45.282;4.302;2023-04-22T00:05:34;91468.00;;;20.18;38.01
54951;BME280;40854;45.282;4.302;2023-04-22T00:07:59;91459.56;;;20.16;37.62
54951;BME280;40854;45.282;4.302;2023-04-22T00:10:26;91462.53;;;20.14;37.83
54951;BME280;40854;45.282;4.302;2023-04-22T00:12:51;91460.47;;;20.11;37.88
54951;BME280;40854;45.282;4.302;2023-04-22T00:15:17;91463.16;;;20.11;38.02
54951;BME280;40854;45.282;4.302;2023-04-22T00:17:48;91457.03;;;20.10;37.83
54951;BME280;40854;45.282;4.302;2023-04-22T00:20:14;91456.88;;;20.07;37.86
54951;BME280;40854;45.282;4.302;2023-04-22T00:22:40;91440.59;;;20.08;38.10
54951;BME280;40854;45.282;4.302;2023-04-22T00:25:06;91446.69;;;20.09;37.83
54951;BME280;40854;45.282;4.302;2023-04-22T00:27:32;91435.59;;;20.07;37.98
54951;BME280;40854;45.282;4.302;2023-04-22T00:29:57;91440.91;;;20.07;38.02
54951;BME280;40854;45.282;4.302;2023-04-22T00:32:23;91457.97;;;20.06;37.65
54951;BME280;40854;45.282;4.302;2023-04-22T00:34:48;91461.41;;;20.06;38.03
54951;BME280;40854;45.282;4.302;2023-04-22T00:37:15;91465.16;;;20.05;37.80
54951;BME280;40854;45.282;4.302;2023-04-22T00:39:40;91453.75;;;20.05;37.60
54951;BME280;40854;45.282;4.302;2023-04-22T00:42:06;91444.19;;;20.04;38.11
54951;BME280;40854;45.282;4.302;2023-04-22T00:44:32;91439.19;;;20.02;37.93
54951;BME280;40854;45.282;4.302;2023-04-22T00:47:00;91445.59;;;20.01;37.87
54951;BME280;40854;45.282;4.302;2023-04-22T00:49:29;91450.44;;;19.99;37.61
54951;BME280;40854;45.282;4.302;2023-04-22T00:51:55;91446.22;;;19.98;37.30
54951;BME280;40854;45.282;4.302;2023-04-22T00:54:21;91449.66;;;19.99;37.65
54951;BME280;40854;45.282;4.302;2023-04-22T00:56:46;91440.41;;;19.96;38.06
54951;BME280;40854;45.282;4.302;2023-04-22T00:59:12;91441.22;;;19.97;37.65
54951;BME280;40854;45.282;4.302;2023-04-22T01:01:37;91446.22;;;19.98;37.70
54951;BME280;40854;45.282;4.302;2023-04-22T01:04:03;91457.16;;;19.97;37.55
54951;BME280;40854;45.282;4.302;2023-04-22T01:06:29;91454.81;;;19.95;37.48
54951;BME280;40854;45.282;4.302;2023-04-22T01:08:58;91443.41;;;19.95;37.65
54951;BME280;40854;45.282;4.302;2023-04-22T01:11:24;91449.81;;;19.94;37.85
54951;BME280;40854;45.282;4.302;2023-04-22T01:13:50;91432.75;;;19.95;37.74
54951;BME280;40854;45.282;4.302;2023-04-22T01:16:15;91429.63;;;19.93;37.38
54951;BME280;40854;45.282;4.302;2023-04-22T01:18:41;91434.94;;;19.93;37.56
54951;BME280;40854;45.282;4.302;2023-04-22T01:21:07;91427.28;;;19.91;37.50
54951;BME280;40854;45.282;4.302;2023-04-22T01:23:32;91417.72;;;19.90;37.36
54951;BME280;40854;45.282;4.302;2023-04-22T01:25:58;91414.28;;;19.90;37.91
54951;BME280;40854;45.282;4.302;2023-04-22T01:28:24;91413.19;;;19.91;37.53
54951;BME280;40854;45.282;4.302;2023-04-22T01:30:50;91416.16;;;19.89;37.85
54951;BME280;40854;45.282;4.302;2023-04-22T01:33:17;91412.72;;;19.89;37.43
54951;BME280;40854;45.282;4.302;2023-04-22T01:35:43;91424.75;;;19.86;37.53
54951;BME280;40854;45.282;4.302;2023-04-22T01:38:11;91423.19;;;19.85;37.47
54951;BME280;40854;45.282;4.302;2023-04-22T01:40:38;91428.19;;;19.87;37.44
54951;BME280;40854;45.282;4.302;2023-04-22T01:43:04;91426.94;;;19.84;37.93
54951;BME280;40854;45.282;4.302;2023-04-22T01:45:30;91442.75;;;19.81;37.62
54951;BME280;40854;45.282;4.302;2023-04-22T01:47:56;91434.44;;;19.82;37.88
54951;BME280;40854;45.282;4.302;2023-04-22T01:50:22;91435.06;;;19.79;37.67
54951;BME280;40854;45.282;4.302;2023-04-22T01:52:48;91439.59;;;19.78;37.43
54951;BME280;40854;45.282;4.302;2023-04-22T01:55:14;91449.16;;;19.80;37.73
54951;BME280;40854;45.282;4.302;2023-04-22T01:57:40;91441.78;;;19.76;37.77
54951;BME280;40854;45.282;4.302;2023-04-22T02:00:07;91452.44;;;19.76;36.68
54951;BME280;40854;45.282;4.302;2023-04-22T02:02:33;91450.06;;;19.75;37.00
54951;BME280;40854;45.282;4.302;2023-04-22T02:04:59;91445.53;;;19.75;37.39
54951;BME280;40854;45.282;4.302;2023-04-22T02:07:25;91441.00;;;19.76;37.38
54951;BME280;40854;45.282;4.302;2023-04-22T02:09:51;91431.78;;;19.73;37.55
54951;BME280;40854;45.282;4.302;2023-04-22T02:12:16;91438.66;;;19.74;37.77
54951;BME280;40854;45.282;4.302;2023-04-22T02:14:42;91433.66;;;19.73;37.62
54951;BME280;40854;45.282;4.302;2023-04-22T02:17:07;91431.28;;;19.71;37.57
54951;BME280;40854;45.282;4.302;2023-04-22T02:19:33;91439.75;;;19.73;37.14
54951;BME280;40854;45.282;4.302;2023-04-22T02:21:58;91444.59;;;19.71;37.45
54951;BME280;40854;45.282;4.302;2023-04-22T02:24:24;91436.13;;;19.69;37.70
54951;BME280;40854;45.282;4.302;2023-04-22T02:26:51;91431.59;;;19.70;37.78
54951;BME280;40854;45.282;4.302;2023-04-22T02:29:16;91428.47;;;19.68;38.03
54951;BME280;40854;45.282;4.302;2023-04-22T02:31:42;91423.78;;;19.65;37.66
54951;BME280;40854;45.282;4.302;2023-04-22T02:34:07;91435.34;;;19.69;37.51
54951;BME280;40854;45.282;4.302;2023-04-22T02:36:33;91439.88;;;19.68;38.16
54951;BME280;40854;45.282;4.302;2023-04-22T02:39:00;91446.31;;;19.67;37.32
54951;BME280;40854;45.282;4.302;2023-04-22T02:41:26;91421.91;;;19.65;38.16
54951;BME280;40854;45.282;4.302;2023-04-22T02:43:51;91432.22;;;19.67;37.50
54951;BME280;40854;45.282;4.302;2023-04-22T02:46:17;91427.53;;;19.64;37.56
54951;BME280;40854;45.282;4.302;2023-04-22T02:48:43;91427.53;;;19.64;37.74
54951;BME280;40854;45.282;4.302;2023-04-22T02:51:08;91429.88;;;19.65;37.75
54951;BME280;40854;45.282;4.302;2023-04-22T02:53:34;91429.88;;;19.65;37.21
54951;BME280;40854;45.282;4.302;2023-04-22T02:56:00;91425.94;;;19.63;37.32
54951;BME280;40854;45.282;4.302;2023-04-22T02:58:26;91424.06;;;19.63;37.73
54951;BME280;40854;45.282;4.302;2023-04-22T03:00:52;91430.50;;;19.62;37.74
54951;BME280;40854;45.282;4.302;2023-04-22T03:03:18;91428.13;;;19.61;37.90
54951;BME280;40854;45.282;4.302;2023-04-22T03:05:43;91441.44;;;19.61;38.13
54951;BME280;40854;45.282;4.302;2023-04-22T03:08:08;91453.16;;;19.60;37.97
54951;BME280;40854;45.282;4.302;2023-04-22T03:10:34;91443.94;;;19.57;37.90
54951;BME280;40854;45.282;4.302;2023-04-22T03:13:00;91440.19;;;19.58;37.70
54951;BME280;40854;45.282;4.302;2023-04-22T03:15:25;91451.13;;;19.57;37.80
54951;BME280;40854;45.282;4.302;2023-04-22T03:17:51;91457.22;;;19.57;37.26
54951;BME280;40854;45.282;4.302;2023-04-22T03:20:16;91441.75;;;19.59;37.74
54951;BME280;40854;45.282;4.302;2023-04-22T03:22:42;91453.47;;;19.58;37.56
54951;BME280;40854;45.282;4.302;2023-04-22T03:25:09;91439.09;;;19.59;37.41
54951;BME280;40854;45.282;4.302;2023-04-22T03:27:36;91438.00;;;19.60;37.75
54951;BME280;40854;45.282;4.302;2023-04-22T03:30:02;91439.38;;;19.58;37.76
54951;BME280;40854;45.282;4.302;2023-04-22T03:32:28;91451.13;;;19.57;37.38
54951;BME280;40854;45.282;4.302;2023-04-22T03:34:53;91450.34;;;19.56;37.72
54951;BME280;40854;45.282;4.302;2023-04-22T03:37:19;91451.44;;;19.55;37.06
54951;BME280;40854;45.282;4.302;2023-04-22T03:39:44;91450.34;;;19.56;37.80
54951;BME280;40854;45.282;4.302;2023-04-22T03:42:11;91453.63;;;19.53;37.47
54951;BME280;40854;45.282;4.302;2023-04-22T03:44:36;91475.66;;;19.54;37.86
54951;BME280;40854;45.282;4.302;2023-04-22T03:47:02;91477.03;;;19.51;37.72
54951;BME280;40854;45.282;4.302;2023-04-22T03:49:27;91481.28;;;19.52;37.14
54951;BME280;40854;45.282;4.302;2023-04-22T03:51:53;91493.81;;;19.52;37.76
54951;BME280;40854;45.282;4.302;2023-04-22T03:54:18;91497.81;;;19.49;37.99
54951;BME280;40854;45.282;4.302;2023-04-22T03:56:44;91508.75;;;19.48;37.81
54951;BME280;40854;45.282;4.302;2023-04-22T03:59:09;91508.66;;;19.53;37.08
54951;BME280;40854;45.282;4.302;2023-04-22T04:01:35;91502.56;;;19.52;37.70
54951;BME280;40854;45.282;4.302;2023-04-22T04:04:00;91497.53;;;19.51;37.75
54951;BME280;40854;45.282;4.302;2023-04-22T04:06:27;91490.31;;;19.51;37.20
54951;BME280;40854;45.282;4.302;2023-04-22T04:08:52;91490.31;;;19.51;38.12
